createdAt,value
2023-01-07T00:01:34.565Z,4.07
2023-01-07T00:04:02.501Z,4.80
2023-01-07T00:06:30.964Z,5.40
2023-01-07T00:08:58.885Z,5.70
2023-01-07T00:11:29.346Z,5.47
2023-01-07T00:13:57.704Z,6.07
2023-01-07T00:16:26.419Z,3.70
2023-01-07T00:18:54.640Z,2.90
2023-01-07T00:21:23.142Z,3.27
2023-01-07T00:23:50.458Z,4.23
2023-01-07T00:26:21.013Z,3.33
2023-01-07T00:28:49.429Z,3.37
2023-01-07T00:31:20.686Z,4.00
2023-01-07T00:33:54.539Z,3.93
2023-01-07T00:36:22.753Z,3.97
2023-01-07T00:38:55.290Z,4.00
2023-01-07T00:41:22.477Z,4.33
2023-01-07T00:43:50.630Z,4.00
2023-01-07T00:46:18.376Z,3.63
2023-01-07T00:48:45.576Z,3.70
2023-01-07T00:51:16.550Z,4.13
2023-01-07T00:53:44.332Z,3.50
2023-01-07T00:56:12.138Z,3.80
2023-01-07T00:58:44.595Z,3.50
2023-01-07T01:01:12.487Z,3.50
2023-01-07T01:03:40.325Z,2.50
2023-01-07T01:06:09.343Z,3.10
2023-01-07T01:08:36.839Z,3.30
2023-01-07T01:11:08.325Z,3.13
2023-01-07T01:13:35.747Z,3.30
2023-01-07T01:16:03.003Z,3.07
2023-01-07T01:18:30.555Z,3.50
2023-01-07T01:20:57.671Z,3.20
2023-01-07T01:23:25.071Z,3.53
2023-01-07T01:25:52.265Z,4.30
2023-01-07T01:28:19.353Z,3.83
2023-01-07T01:30:46.501Z,3.80
2023-01-07T01:33:13.639Z,3.90
2023-01-07T01:35:41.900Z,3.67
2023-01-07T01:38:09.111Z,4.90
2023-01-07T01:40:36.276Z,3.30
2023-01-07T01:43:03.419Z,2.97
2023-01-07T01:45:30.730Z,3.13
2023-01-07T01:48:01.687Z,3.30
2023-01-07T01:50:43.696Z,3.17
2023-01-07T01:53:13.003Z,3.40
2023-01-07T01:56:07.298Z,3.67
2023-01-07T01:58:39.663Z,3.57
2023-01-07T02:01:06.921Z,4.70
2023-01-07T02:03:35.975Z,4.03
2023-01-07T02:06:03.512Z,4.43
2023-01-07T02:08:31.805Z,4.33
2023-01-07T02:11:19.416Z,3.63
2023-01-07T02:14:12.690Z,3.40
2023-01-07T02:16:52.226Z,3.67
2023-01-07T02:19:38.558Z,3.47
2023-01-07T02:22:05.848Z,3.97
2023-01-07T02:24:42.117Z,4.73
2023-01-07T02:27:11.565Z,3.90
2023-01-07T02:29:58.340Z,4.10
2023-01-07T02:32:25.472Z,4.03
2023-01-07T02:35:11.284Z,4.67
2023-01-07T02:37:44.888Z,5.83
2023-01-07T02:40:16.316Z,5.53
2023-01-07T02:42:50.246Z,5.70
2023-01-07T02:45:17.615Z,5.23
2023-01-07T02:47:50.158Z,5.50
2023-01-07T02:50:17.327Z,5.47
2023-01-07T02:52:44.551Z,4.73
2023-01-07T02:55:20.428Z,4.43
2023-01-07T02:58:00.046Z,4.30
2023-01-07T03:00:45.439Z,4.50
2023-01-07T03:03:22.021Z,5.03
2023-01-07T03:05:58.398Z,5.50
2023-01-07T03:08:40.749Z,5.00
2023-01-07T03:11:10.051Z,6.43
2023-01-07T03:13:46.813Z,6.70
2023-01-07T03:16:17.084Z,4.30
2023-01-07T03:18:47.832Z,3.90
2023-01-07T03:21:16.536Z,3.87
2023-01-07T03:23:46.628Z,3.77
2023-01-07T03:26:15.904Z,4.47
2023-01-07T03:28:43.241Z,4.63
2023-01-07T03:31:12.495Z,4.30
2023-01-07T03:33:52.941Z,5.63
2023-01-07T03:36:21.777Z,6.17
2023-01-07T03:38:51.468Z,5.30
2023-01-07T03:41:37.516Z,4.87
2023-01-07T03:44:04.683Z,4.20
2023-01-07T03:46:32.614Z,4.60
2023-01-07T03:49:01.021Z,4.20
2023-01-07T03:51:28.307Z,4.27
2023-01-07T03:53:55.449Z,3.83
2023-01-07T03:56:22.572Z,4.00
2023-01-07T03:58:50.562Z,5.17
2023-01-07T04:01:17.884Z,4.17
2023-01-07T04:03:45.047Z,3.83
2023-01-07T04:06:12.180Z,3.83
2023-01-07T04:08:39.329Z,3.70
2023-01-07T04:11:06.556Z,4.17
2023-01-07T04:13:33.687Z,4.63
2023-01-07T04:16:00.839Z,4.00
2023-01-07T04:18:28.073Z,4.10
2023-01-07T04:20:55.234Z,4.20
2023-01-07T04:23:22.364Z,4.50
2023-01-07T04:25:49.892Z,4.50
2023-01-07T04:28:17.107Z,4.83
2023-01-07T04:30:44.460Z,5.50
2023-01-07T04:33:11.664Z,4.80
2023-01-07T04:35:40.191Z,4.57
2023-01-07T04:38:07.579Z,4.13
2023-01-07T04:40:34.990Z,4.23
2023-01-07T04:43:02.974Z,4.07
2023-01-07T04:45:31.185Z,4.03
2023-01-07T04:47:58.779Z,4.43
2023-01-07T04:50:26.095Z,4.10
2023-01-07T04:52:53.441Z,4.40
2023-01-07T04:55:20.749Z,5.00
2023-01-07T04:57:48.093Z,5.13
2023-01-07T05:00:15.739Z,6.27
2023-01-07T05:02:42.924Z,6.80
2023-01-07T05:05:10.436Z,6.90
2023-01-07T05:07:37.565Z,7.63
2023-01-07T05:10:04.992Z,7.80
2023-01-07T05:12:38.244Z,8.40
2023-01-07T05:15:09.000Z,7.10
2023-01-07T05:17:36.212Z,8.80
2023-01-07T05:20:03.383Z,12.70
2023-01-07T05:22:31.531Z,8.57
2023-01-07T05:24:58.682Z,7.87
2023-01-07T05:27:25.850Z,8.30
2023-01-07T05:29:52.970Z,9.67
2023-01-07T05:32:20.142Z,10.07
2023-01-07T05:34:47.275Z,10.00
2023-01-07T05:37:14.426Z,10.87
2023-01-07T05:39:41.577Z,11.33
2023-01-07T05:42:08.730Z,11.73
2023-01-07T05:44:35.920Z,12.33
2023-01-07T05:47:03.073Z,13.23
2023-01-07T05:49:30.196Z,11.40
2023-01-07T05:51:57.359Z,11.67
2023-01-07T05:54:24.497Z,9.87
2023-01-07T05:56:51.648Z,9.00
2023-01-07T05:59:18.829Z,10.23
2023-01-07T06:01:45.991Z,11.13
2023-01-07T06:04:13.264Z,8.13
2023-01-07T06:06:40.655Z,9.87
2023-01-07T06:09:07.861Z,6.50
2023-01-07T06:11:34.975Z,8.03
2023-01-07T06:14:02.120Z,10.37
2023-01-07T06:16:29.437Z,10.13
2023-01-07T06:18:56.605Z,11.67
2023-01-07T06:21:23.750Z,13.70
2023-01-07T06:23:50.981Z,14.00
2023-01-07T06:26:18.107Z,12.57
2023-01-07T06:28:48.064Z,13.03
2023-01-07T06:31:15.254Z,11.97
2023-01-07T06:33:42.543Z,12.37
2023-01-07T06:36:09.872Z,15.80
2023-01-07T06:38:37.083Z,13.97
2023-01-07T06:41:04.371Z,14.53
2023-01-07T06:43:31.474Z,15.70
2023-01-07T06:45:59.092Z,13.43
2023-01-07T06:48:26.829Z,15.23
2023-01-07T06:50:53.956Z,13.20
2023-01-07T06:53:21.150Z,13.50
2023-01-07T06:55:49.512Z,14.80
2023-01-07T06:58:17.105Z,13.90
2023-01-07T07:00:44.737Z,13.37
2023-01-07T07:03:12.094Z,11.67
2023-01-07T07:05:39.656Z,15.40
2023-01-07T07:08:06.868Z,15.33
2023-01-07T07:10:34.178Z,13.40
2023-01-07T07:13:01.542Z,13.80
2023-01-07T07:15:28.913Z,15.50
2023-01-07T07:17:56.238Z,15.10
2023-01-07T07:20:23.355Z,14.27
2023-01-07T07:22:50.571Z,14.17
2023-01-07T07:25:17.894Z,13.07
2023-01-07T07:27:46.398Z,14.53
2023-01-07T07:30:16.325Z,12.47
2023-01-07T07:32:43.956Z,11.13
2023-01-07T07:35:11.938Z,12.27
2023-01-07T07:37:39.323Z,13.33
2023-01-07T07:40:09.117Z,12.03
2023-01-07T07:43:10.284Z,12.47
2023-01-07T07:45:23.895Z,12.70
2023-01-07T07:47:51.082Z,12.00
2023-01-07T07:50:18.453Z,10.63
2023-01-07T07:52:47.999Z,11.80
2023-01-07T07:55:20.307Z,11.33
2023-01-07T07:57:56.851Z,15.27
2023-01-07T08:00:24.290Z,11.47
2023-01-07T08:02:51.881Z,11.30
2023-01-07T08:05:19.163Z,11.60
2023-01-07T08:07:46.602Z,11.60
2023-01-07T08:10:14.989Z,13.13
2023-01-07T08:12:42.129Z,14.30
2023-01-07T08:15:09.649Z,14.30
2023-01-07T08:17:37.057Z,12.93
2023-01-07T08:20:08.024Z,14.27
2023-01-07T08:22:35.521Z,12.53
2023-01-07T08:25:03.048Z,11.87
2023-01-07T08:27:30.293Z,10.50
2023-01-07T08:29:57.549Z,10.40
2023-01-07T08:32:27.267Z,9.77
2023-01-07T08:34:54.382Z,10.57
2023-01-07T08:37:21.637Z,11.83
2023-01-07T08:39:48.825Z,9.80
2023-01-07T08:42:15.948Z,10.33
2023-01-07T08:44:43.986Z,9.63
2023-01-07T08:47:11.373Z,9.90
2023-01-07T08:49:38.635Z,8.90
2023-01-07T08:52:05.920Z,10.23
2023-01-07T08:54:33.104Z,10.70
2023-01-07T08:57:00.505Z,10.23
2023-01-07T08:59:27.722Z,11.17
2023-01-07T09:01:55.076Z,15.27
2023-01-07T09:04:22.669Z,8.70
2023-01-07T09:06:49.851Z,13.10
2023-01-07T09:09:17.891Z,9.33
2023-01-07T09:11:45.138Z,8.87
2023-01-07T09:14:12.309Z,9.03
2023-01-07T09:16:39.598Z,10.27
2023-01-07T09:19:06.804Z,8.83
2023-01-07T09:21:34.039Z,10.33
2023-01-07T09:24:01.297Z,8.97
2023-01-07T09:26:29.792Z,13.23
2023-01-07T09:28:57.084Z,8.27
2023-01-07T09:31:24.333Z,8.10
2023-01-07T09:33:51.599Z,9.33
2023-01-07T09:36:18.858Z,8.33
2023-01-07T09:38:46.071Z,8.57
2023-01-07T09:41:20.686Z,7.77
2023-01-07T09:43:59.886Z,8.37
2023-01-07T09:46:28.660Z,8.47
2023-01-07T09:48:58.922Z,9.27
2023-01-07T09:51:31.142Z,8.47
2023-01-07T09:54:00.267Z,9.00
2023-01-07T09:56:28.986Z,7.97
2023-01-07T09:58:56.979Z,9.17
2023-01-07T10:01:30.644Z,9.37
2023-01-07T10:04:07.075Z,9.37
2023-01-07T10:06:43.036Z,11.30
2023-01-07T10:09:30.027Z,9.37
2023-01-07T10:12:00.706Z,12.60
2023-01-07T10:14:27.795Z,9.70
2023-01-07T10:17:13.443Z,11.50
2023-01-07T10:19:48.801Z,11.33
2023-01-07T10:22:34.561Z,13.30
2023-01-07T10:25:04.471Z,10.17
2023-01-07T10:27:42.777Z,10.77
2023-01-07T10:30:16.113Z,10.80
2023-01-07T10:32:43.558Z,10.77
2023-01-07T10:35:17.482Z,9.43
2023-01-07T10:37:45.291Z,11.10
2023-01-07T10:40:18.657Z,10.37
2023-01-07T10:42:58.636Z,10.70
2023-01-07T10:45:44.412Z,11.83
2023-01-07T10:48:14.560Z,11.67
2023-01-07T10:50:41.721Z,13.10
2023-01-07T10:53:17.926Z,12.50
2023-01-07T10:55:55.217Z,12.60
2023-01-07T10:58:22.935Z,14.80
2023-01-07T11:00:50.371Z,13.83
2023-01-07T11:03:22.455Z,12.60
2023-01-07T11:05:53.480Z,12.43
2023-01-07T11:08:30.340Z,16.10
2023-01-07T11:10:58.838Z,14.87
2023-01-07T11:13:36.955Z,13.17
2023-01-07T11:16:10.017Z,11.97
2023-01-07T11:18:41.826Z,10.40
2023-01-07T11:21:09.110Z,11.87
2023-01-07T11:23:56.274Z,12.00
2023-01-07T11:26:26.353Z,15.43
2023-01-07T11:28:54.949Z,12.50
2023-01-07T11:31:24.027Z,11.83
2023-01-07T11:34:03.903Z,10.97
2023-01-07T11:36:43.534Z,12.17
2023-01-07T11:39:19.515Z,10.53
2023-01-07T11:42:32.003Z,11.70
2023-01-07T11:45:17.868Z,12.23
2023-01-07T11:47:49.890Z,13.50
2023-01-07T11:50:43.844Z,9.87
2023-01-07T11:53:14.071Z,9.73
2023-01-07T11:55:42.581Z,8.90
2023-01-07T11:58:29.620Z,10.13
2023-01-07T12:01:14.967Z,9.00
2023-01-07T12:03:44.039Z,9.40
2023-01-07T12:06:14.301Z,9.37
2023-01-07T12:08:42.724Z,8.70
2023-01-07T12:11:12.207Z,8.83
2023-01-07T12:13:41.517Z,8.70
2023-01-07T12:16:09.432Z,10.07
2023-01-07T12:18:39.806Z,10.67
2023-01-07T12:21:10.257Z,11.17
2023-01-07T12:24:07.002Z,12.10
2023-01-07T12:26:54.369Z,7.50
2023-01-07T12:29:25.361Z,7.57
2023-01-07T12:32:10.362Z,10.57
2023-01-07T12:34:56.789Z,7.57
2023-01-07T12:37:23.964Z,9.27
2023-01-07T12:39:54.429Z,6.53
2023-01-07T12:42:29.152Z,7.10
2023-01-07T12:45:02.188Z,6.50
2023-01-07T12:47:34.866Z,6.20
2023-01-07T12:50:14.088Z,6.17
2023-01-07T12:52:43.892Z,7.13
2023-01-07T12:55:17.460Z,8.00
2023-01-07T12:57:46.504Z,6.60
2023-01-07T13:00:19.733Z,7.63
2023-01-07T13:02:51.280Z,7.17
2023-01-07T13:05:22.496Z,6.90
2023-01-07T13:08:06.672Z,6.47
2023-01-07T13:10:36.927Z,7.60
2023-01-07T13:13:07.868Z,7.67
2023-01-07T13:15:38.037Z,7.60
2023-01-07T13:18:25.529Z,7.63
2023-01-07T13:21:08.277Z,7.20
2023-01-07T13:23:46.147Z,7.43
2023-01-07T13:26:22.504Z,7.30
2023-01-07T13:28:56.998Z,7.40
2023-01-07T13:31:43.071Z,9.83
2023-01-07T13:34:13.196Z,8.13
2023-01-07T13:36:40.453Z,8.00
2023-01-07T13:39:26.645Z,7.47
2023-01-07T13:42:08.183Z,7.80
2023-01-07T13:44:47.583Z,7.20
2023-01-07T13:47:16.829Z,7.30
2023-01-07T13:49:56.279Z,8.03
2023-01-07T13:52:24.753Z,7.33
2023-01-07T13:54:51.877Z,7.03
2023-01-07T13:57:38.917Z,6.83
2023-01-07T14:00:07.575Z,6.53
2023-01-07T14:02:53.778Z,6.60
2023-01-07T14:05:25.355Z,6.70
2023-01-07T14:07:53.891Z,6.50
2023-01-07T14:10:33.114Z,6.73
2023-01-07T14:13:15.254Z,6.80
2023-01-07T14:15:49.420Z,8.70
2023-01-07T14:18:35.527Z,6.33
2023-01-07T14:21:18.831Z,6.43
2023-01-07T14:23:54.970Z,6.80
2023-01-07T14:26:28.025Z,7.77
2023-01-07T14:28:58.002Z,8.13
2023-01-07T14:31:26.717Z,7.23
2023-01-07T14:33:58.171Z,6.67
2023-01-07T14:36:45.269Z,6.80
2023-01-07T14:39:30.715Z,8.30
2023-01-07T14:42:16.608Z,7.90
2023-01-07T14:44:43.898Z,8.53
2023-01-07T14:47:14.644Z,7.87
2023-01-07T14:49:53.839Z,10.00
2023-01-07T14:52:27.024Z,8.33
2023-01-07T14:55:00.279Z,7.40
2023-01-07T14:57:46.532Z,8.97
2023-01-07T15:00:32.290Z,7.63
2023-01-07T15:02:59.480Z,7.90
2023-01-07T15:05:29.653Z,8.33
2023-01-07T15:08:19.019Z,9.20
2023-01-07T15:11:06.979Z,7.60
2023-01-07T15:13:56.125Z,8.50
2023-01-07T15:16:24.273Z,8.60
2023-01-07T15:18:52.497Z,17.63
2023-01-07T15:21:25.828Z,10.97
2023-01-07T15:24:09.114Z,10.33
2023-01-07T15:26:39.371Z,10.83
2023-01-07T15:29:25.479Z,13.83
2023-01-07T15:32:00.487Z,9.77
2023-01-07T15:34:30.240Z,9.60
2023-01-07T15:36:57.816Z,11.50
2023-01-07T15:39:27.657Z,12.80
2023-01-07T15:41:55.312Z,11.20
2023-01-07T15:44:40.361Z,11.00
2023-01-07T15:47:27.939Z,10.70
2023-01-07T15:49:55.121Z,10.07
2023-01-07T15:52:24.106Z,10.43
2023-01-07T15:54:51.358Z,9.53
2023-01-07T15:57:23.938Z,10.43
2023-01-07T15:59:52.379Z,11.60
2023-01-07T16:02:27.838Z,11.17
2023-01-07T16:04:56.636Z,11.43
2023-01-07T16:07:26.885Z,11.40
2023-01-07T16:09:54.746Z,11.27
2023-01-07T16:12:27.959Z,11.67
2023-01-07T16:14:55.121Z,11.33
2023-01-07T16:17:22.506Z,11.77
2023-01-07T16:19:49.774Z,10.50
2023-01-07T16:22:19.517Z,10.60
2023-01-07T16:24:51.254Z,12.13
2023-01-07T16:27:21.793Z,14.30
2023-01-07T16:29:53.591Z,12.93
2023-01-07T16:32:22.154Z,13.73
2023-01-07T16:35:01.444Z,10.43
2023-01-07T16:37:29.212Z,12.90
2023-01-07T16:39:56.597Z,12.57
2023-01-07T16:42:23.975Z,12.47
2023-01-07T16:44:54.166Z,14.80
2023-01-07T16:47:25.636Z,11.63
2023-01-07T16:49:57.069Z,12.83
2023-01-07T16:52:29.937Z,16.07
2023-01-07T16:54:57.249Z,12.57
2023-01-07T16:57:33.700Z,11.87
2023-01-07T17:00:02.156Z,13.57
2023-01-07T17:02:40.713Z,16.00
2023-01-07T17:05:24.735Z,14.23
2023-01-07T17:08:00.109Z,13.70
2023-01-07T17:10:29.239Z,13.87
2023-01-07T17:13:04.316Z,15.87
2023-01-07T17:15:32.039Z,14.97
2023-01-07T17:18:11.566Z,16.77
2023-01-07T17:20:46.247Z,15.17
2023-01-07T17:23:26.128Z,17.60
2023-01-07T17:25:58.322Z,16.30
2023-01-07T17:28:26.738Z,17.83
2023-01-07T17:30:54.250Z,17.33
2023-01-07T17:33:22.862Z,18.00
2023-01-07T17:35:51.825Z,16.93
2023-01-07T17:38:19.157Z,16.90
2023-01-07T17:40:46.555Z,17.13
2023-01-07T17:43:33.507Z,16.70
2023-01-07T17:46:04.469Z,17.70
2023-01-07T17:48:32.028Z,16.27
2023-01-07T17:51:00.737Z,17.17
2023-01-07T17:53:29.716Z,19.37
2023-01-07T17:55:57.254Z,19.30
2023-01-07T17:58:29.154Z,19.87
2023-01-07T18:00:56.963Z,22.00
2023-01-07T18:03:24.427Z,23.97
2023-01-07T18:05:51.630Z,22.13
2023-01-07T18:08:20.181Z,24.23
2023-01-07T18:11:06.293Z,20.57
2023-01-07T18:13:33.869Z,22.17
2023-01-07T18:16:01.985Z,22.57
2023-01-07T18:18:31.304Z,20.40
2023-01-07T18:20:58.859Z,20.40
2023-01-07T18:23:25.998Z,20.63
2023-01-07T18:25:53.395Z,20.77
2023-01-07T18:28:20.639Z,20.03
2023-01-07T18:30:48.209Z,19.50
2023-01-07T18:33:15.599Z,20.93
2023-01-07T18:35:42.746Z,20.33
2023-01-07T18:38:13.655Z,19.70
2023-01-07T18:40:40.949Z,19.57
2023-01-07T18:43:08.362Z,21.13
2023-01-07T18:45:35.840Z,23.93
2023-01-07T18:48:03.635Z,22.30
2023-01-07T18:50:31.032Z,26.10
2023-01-07T18:52:58.278Z,33.77
2023-01-07T18:55:27.462Z,30.13
2023-01-07T18:57:54.606Z,35.93
2023-01-07T19:00:22.053Z,31.93
2023-01-07T19:02:49.354Z,31.53
2023-01-07T19:05:16.870Z,29.67
2023-01-07T19:07:44.003Z,26.73
2023-01-07T19:10:11.364Z,22.93
2023-01-07T19:12:38.626Z,24.50
2023-01-07T19:15:06.069Z,25.23
2023-01-07T19:17:33.819Z,27.77
2023-01-07T19:20:01.005Z,33.03
2023-01-07T19:22:28.507Z,25.73
2023-01-07T19:24:56.845Z,26.77
2023-01-07T19:27:24.670Z,28.60
2023-01-07T19:29:54.104Z,37.30
2023-01-07T19:32:21.290Z,37.33
2023-01-07T19:34:49.669Z,29.33
2023-01-07T19:37:17.234Z,26.37
2023-01-07T19:39:44.437Z,29.17
2023-01-07T19:42:12.888Z,24.03
2023-01-07T19:44:41.617Z,25.93
2023-01-07T19:47:09.975Z,22.67
2023-01-07T19:49:37.277Z,24.70
2023-01-07T19:52:04.477Z,26.53
2023-01-07T19:54:31.586Z,28.87
2023-01-07T19:56:58.806Z,32.00
2023-01-07T19:59:26.306Z,25.70
2023-01-07T20:01:53.833Z,29.13
2023-01-07T20:04:21.330Z,32.37
2023-01-07T20:06:50.439Z,27.33
2023-01-07T20:09:18.632Z,26.37
2023-01-07T20:11:45.960Z,30.23
2023-01-07T20:14:14.104Z,36.60
2023-01-07T20:16:42.349Z,37.03
2023-01-07T20:19:12.864Z,35.17
2023-01-07T20:21:40.120Z,25.03
2023-01-07T20:24:07.892Z,23.97
2023-01-07T20:26:37.902Z,22.13
2023-01-07T20:29:05.227Z,24.30
2023-01-07T20:31:32.760Z,21.60
2023-01-07T20:34:00.576Z,21.87
2023-01-07T20:36:31.469Z,21.97
2023-01-07T20:39:05.191Z,19.67
2023-01-07T20:41:38.060Z,22.07
2023-01-07T20:44:06.708Z,21.77
2023-01-07T20:46:34.858Z,22.80
2023-01-07T20:49:02.624Z,22.33
2023-01-07T20:51:29.819Z,26.63
2023-01-07T20:53:56.932Z,23.47
2023-01-07T20:56:24.624Z,25.53
2023-01-07T20:58:52.107Z,23.30
2023-01-07T21:01:20.675Z,23.13
2023-01-07T21:03:48.040Z,19.53
2023-01-07T21:06:17.912Z,21.80
2023-01-07T21:08:46.617Z,22.83
2023-01-07T21:11:14.634Z,21.80
2023-01-07T21:13:42.650Z,20.53
2023-01-07T21:16:10.243Z,17.73
2023-01-07T21:18:37.586Z,19.60
2023-01-07T21:21:09.651Z,20.83
2023-01-07T21:23:36.901Z,20.83
2023-01-07T21:26:04.169Z,20.60
2023-01-07T21:28:31.646Z,21.30
2023-01-07T21:31:02.655Z,21.23
2023-01-07T21:33:30.234Z,19.67
2023-01-07T21:35:57.486Z,17.60
2023-01-07T21:38:24.703Z,18.60
2023-01-07T21:40:51.931Z,18.90
2023-01-07T21:43:19.118Z,19.33
2023-01-07T21:45:46.273Z,19.23
2023-01-07T21:48:13.432Z,20.93
2023-01-07T21:50:40.551Z,20.07
2023-01-07T21:53:07.691Z,20.23
2023-01-07T21:55:38.453Z,20.47
2023-01-07T21:58:05.795Z,21.30
2023-01-07T22:00:33.424Z,21.50
2023-01-07T22:03:00.563Z,20.47
2023-01-07T22:05:27.809Z,22.17
2023-01-07T22:07:54.977Z,20.80
2023-01-07T22:10:22.679Z,21.83
2023-01-07T22:12:49.890Z,20.63
2023-01-07T22:15:17.185Z,21.70
2023-01-07T22:17:44.333Z,17.83
2023-01-07T22:20:11.936Z,20.07
2023-01-07T22:22:39.415Z,20.50
2023-01-07T22:25:06.936Z,19.87
2023-01-07T22:27:34.112Z,20.33
2023-01-07T22:30:01.397Z,21.30
2023-01-07T22:32:29.071Z,20.37
2023-01-07T22:34:56.173Z,21.73
2023-01-07T22:37:26.381Z,21.33
2023-01-07T22:39:57.795Z,21.97
2023-01-07T22:42:28.792Z,19.83
2023-01-07T22:45:17.921Z,21.53
2023-01-07T22:47:47.063Z,22.30
2023-01-07T22:50:14.820Z,20.03
2023-01-07T22:52:42.774Z,21.87
2023-01-07T22:55:10.144Z,22.33
2023-01-07T22:57:37.661Z,23.13
2023-01-07T23:00:05.851Z,23.03
2023-01-07T23:02:33.134Z,23.77
2023-01-07T23:05:01.138Z,21.77
2023-01-07T23:07:28.865Z,20.90
2023-01-07T23:09:56.075Z,20.73
2023-01-07T23:12:23.542Z,22.03
2023-01-07T23:14:50.722Z,20.67
2023-01-07T23:17:17.855Z,21.20
2023-01-07T23:19:45.065Z,20.70
2023-01-07T23:22:12.329Z,21.27
2023-01-07T23:24:40.041Z,19.60
2023-01-07T23:27:07.530Z,21.70
2023-01-07T23:29:35.893Z,24.97
2023-01-07T23:32:03.578Z,26.97
2023-01-07T23:34:31.128Z,26.80
2023-01-07T23:36:58.318Z,21.93
2023-01-07T23:39:25.576Z,24.00
2023-01-07T23:41:52.824Z,20.90
2023-01-07T23:44:20.054Z,20.93
2023-01-07T23:46:47.815Z,22.23
2023-01-07T23:49:15.033Z,19.57
2023-01-07T23:51:42.456Z,18.73
2023-01-07T23:54:10.027Z,21.37
2023-01-07T23:56:37.243Z,20.70
2023-01-07T23:59:04.815Z,23.77
